Time;durP1;ratioP1;P1;durP2;ratioP2;P2;SDS_P1;SDS_P2;PMS_P1;PMS_P2;Temp;Humidity;BMP_temperature;BMP_pressure;BME280_temperature;BME280_humidity;BME280_pressure;Samples;Min_cycle;Max_cycle;Signal;HPM_P1;HPM_P2
2021/12/17 00:00:46;;;;;;;17.08;9.07;;;;;;;;;;6206703;28;20058;-63
2021/12/17 00:03:49;;;;;;;19.80;8.05;;;;;;;;;;6207886;28;20485;-61
2021/12/17 00:06:50;;;;;;;20.63;8.73;;;;;;;;;;6206275;28;20073;-61
2021/12/17 00:09:53;;;;;;;19.92;9.63;;;;;;;;;;6203201;28;20056;-62
2021/12/17 00:12:54;;;;;;;16.90;8.23;;;;;;;;;;6205082;28;20089;-61
2021/12/17 00:15:55;;;;;;;21.63;8.73;;;;;;;;;;6205526;28;20064;-62
2021/12/17 00:48:47;;;;;;;18.88;8.27;;;;;;;;;;6202429;28;20042;-61
2021/12/17 00:54:55;;;;;;;19.83;9.27;;;;;;;;;;6201344;28;20454;-61
2021/12/17 00:57:55;;;;;;;16.88;8.18;;;;;;;;;;6201523;28;20046;-62
2021/12/17 01:00:56;;;;;;;17.15;7.03;;;;;;;;;;6199775;28;20054;-62
2021/12/17 01:03:57;;;;;;;18.48;6.72;;;;;;;;;;6204703;28;20069;-61
2021/12/17 01:06:58;;;;;;;17.95;7.40;;;;;;;;;;6204517;28;20053;-61
2021/12/17 01:10:00;;;;;;;16.58;7.28;;;;;;;;;;6211419;28;20054;-62
2021/12/17 01:13:02;;;;;;;13.40;5.63;;;;;;;;;;6202316;28;20064;-61
2021/12/17 01:16:04;;;;;;;12.52;5.70;;;;;;;;;;6202193;28;20426;-61
2021/12/17 01:19:24;;;;;;;14.70;6.35;;;;;;;;;;6204800;28;20139;-61
2021/12/17 01:35:21;;;;;;;19.75;6.00;;;;;;;;;;6210078;28;20056;-62
2021/12/17 01:35:52;;;;;;;12.32;4.65;;;;;;;;;;6211932;28;20042;-62
2021/12/17 01:45:01;;;;;;;13.45;5.40;;;;;;;;;;6212090;28;20140;-62
2021/12/17 01:48:04;;;;;;;13.35;5.30;;;;;;;;;;6208168;28;20582;-63
2021/12/17 02:00:52;;;;;;;21.58;6.28;;;;;;;;;;6202749;28;20045;-62
2021/12/17 02:03:53;;;;;;;14.43;5.78;;;;;;;;;;6209117;28;20045;-61
2021/12/17 02:06:54;;;;;;;16.90;6.43;;;;;;;;;;6208804;28;20124;-62
2021/12/17 02:32:20;;;;;;;16.70;6.15;;;;;;;;;;6202306;28;20053;-62
2021/12/17 02:36:03;;;;;;;15.73;6.18;;;;;;;;;;6206566;28;20457;-61
2021/12/17 02:38:44;;;;;;;17.17;5.70;;;;;;;;;;6203155;28;20502;-62
2021/12/17 02:48:26;;;;;;;16.88;5.80;;;;;;;;;;6204534;28;20045;-62
2021/12/17 02:51:26;;;;;;;19.23;6.07;;;;;;;;;;6205307;28;20096;-62
2021/12/17 02:54:28;;;;;;;11.20;5.50;;;;;;;;;;6207450;28;20042;-62
2021/12/17 02:57:29;;;;;;;17.43;5.83;;;;;;;;;;6199965;28;20575;-62
2021/12/17 03:00:30;;;;;;;14.25;6.10;;;;;;;;;;6205613;28;20058;-61
2021/12/17 03:03:33;;;;;;;17.75;6.13;;;;;;;;;;6207687;28;20081;-61
2021/12/17 03:06:33;;;;;;;15.77;5.82;;;;;;;;;;6209886;28;20442;-63
2021/12/17 03:13:01;;;;;;;21.45;6.57;;;;;;;;;;6202066;28;20109;-63
2021/12/17 03:16:11;;;;;;;14.40;5.63;;;;;;;;;;6206076;28;20137;-62
2021/12/17 03:19:27;;;;;;;16.08;7.28;;;;;;;;;;6206606;28;20180;-62
2021/12/17 03:26:15;;;;;;;16.27;5.55;;;;;;;;;;6188522;28;20050;-61
2021/12/17 03:29:18;;;;;;;13.63;5.57;;;;;;;;;;6184993;28;20090;-63
2021/12/17 03:32:19;;;;;;;13.52;5.47;;;;;;;;;;6200211;28;20057;-63
2021/12/17 03:35:19;;;;;;;12.52;5.70;;;;;;;;;;6206755;28;20690;-62
2021/12/17 03:38:21;;;;;;;13.63;5.97;;;;;;;;;;6202829;28;20611;-61
2021/12/17 03:41:36;;;;;;;18.57;5.47;;;;;;;;;;6204624;28;20054;-62
2021/12/17 03:44:36;;;;;;;12.85;5.68;;;;;;;;;;6207472;28;20057;-64
2021/12/17 03:47:37;;;;;;;17.73;6.40;;;;;;;;;;6198060;28;20137;-62
2021/12/17 03:50:38;;;;;;;13.68;5.95;;;;;;;;;;6203609;28;20046;-62
2021/12/17 03:53:41;;;;;;;16.98;6.18;;;;;;;;;;6204325;28;20046;-63
2021/12/17 03:56:41;;;;;;;15.50;6.63;;;;;;;;;;6200250;28;20121;-61
2021/12/17 03:59:42;;;;;;;15.15;6.07;;;;;;;;;;6201152;28;20057;-61
2021/12/17 04:02:44;;;;;;;15.40;6.22;;;;;;;;;;6207217;28;20547;-62
2021/12/17 04:05:45;;;;;;;14.02;5.38;;;;;;;;;;6209753;28;20046;-62
2021/12/17 04:08:46;;;;;;;14.90;6.10;;;;;;;;;;6207594;28;20459;-62
2021/12/17 04:11:47;;;;;;;15.07;6.10;;;;;;;;;;6203670;28;20799;-62
2021/12/17 04:14:48;;;;;;;18.23;7.32;;;;;;;;;;6203938;28;20156;-62
2021/12/17 04:17:55;;;;;;;20.77;7.68;;;;;;;;;;6200865;28;20102;-63
2021/12/17 04:20:55;;;;;;;18.98;9.40;;;;;;;;;;6203170;28;20531;-62
2021/12/17 04:23:56;;;;;;;16.80;8.73;;;;;;;;;;6205434;28;20054;-62
2021/12/17 04:26:57;;;;;;;20.67;9.38;;;;;;;;;;6203489;28;20049;-63
2021/12/17 04:29:58;;;;;;;15.15;8.68;;;;;;;;;;6200255;28;20042;-63
2021/12/17 04:32:59;;;;;;;17.85;8.80;;;;;;;;;;6200860;28;20087;-62
2021/12/17 04:36:00;;;;;;;21.27;8.57;;;;;;;;;;6202812;28;20096;-62
2021/12/17 04:39:01;;;;;;;21.00;8.27;;;;;;;;;;6206127;28;20458;-62
2021/12/17 04:42:08;;;;;;;13.35;6.25;;;;;;;;;;6201909;28;20077;-63
2021/12/17 04:45:09;;;;;;;14.63;6.15;;;;;;;;;;6208226;28;20265;-62
2021/12/17 04:58:08;;;;;;;20.15;9.75;;;;;;;;;;6212971;28;20482;-61
2021/12/17 05:01:13;;;;;;;27.88;12.13;;;;;;;;;;6208267;28;20081;-63
2021/12/17 05:04:13;;;;;;;12.23;5.97;;;;;;;;;;6216251;28;20053;-61
2021/12/17 05:07:14;;;;;;;15.48;5.95;;;;;;;;;;6217403;28;20081;-61
2021/12/17 05:10:53;;;;;;;16.23;6.28;;;;;;;;;;6216576;28;20116;-61
2021/12/17 05:20:48;;;;;;;16.95;6.45;;;;;;;;;;6206033;28;20046;-61
2021/12/17 05:23:51;;;;;;;15.77;6.32;;;;;;;;;;6214004;28;20148;-61
2021/12/17 05:26:52;;;;;;;14.90;5.95;;;;;;;;;;6213902;28;20049;-61
2021/12/17 05:29:53;;;;;;;17.45;6.00;;;;;;;;;;6214519;28;20049;-61
2021/12/17 05:32:54;;;;;;;19.85;7.65;;;;;;;;;;6217038;28;20446;-61
2021/12/17 05:35:56;;;;;;;21.83;7.47;;;;;;;;;;6214012;28;20452;-62
2021/12/17 05:38:57;;;;;;;17.60;7.00;;;;;;;;;;6213138;28;20338;-61
2021/12/17 05:41:58;;;;;;;18.98;7.50;;;;;;;;;;6212015;28;20050;-61
2021/12/17 05:45:07;;;;;;;15.02;6.13;;;;;;;;;;6213367;28;20064;-62
2021/12/17 05:48:09;;;;;;;22.48;7.53;;;;;;;;;;6203412;28;20409;-61
2021/12/17 05:51:10;;;;;;;16.73;6.43;;;;;;;;;;6203321;28;20077;-62
2021/12/17 05:54:11;;;;;;;14.75;6.95;;;;;;;;;;6200316;28;20136;-62
2021/12/17 05:57:12;;;;;;;16.70;6.75;;;;;;;;;;6204895;28;20081;-61
2021/12/17 06:00:13;;;;;;;14.63;6.15;;;;;;;;;;6205879;28;20488;-62
2021/12/17 06:03:14;;;;;;;17.50;5.83;;;;;;;;;;6202972;28;20046;-62
2021/12/17 06:06:33;;;;;;;17.15;6.47;;;;;;;;;;6204087;28;20733;-61
2021/12/17 06:09:34;;;;;;;17.17;6.38;;;;;;;;;;6203155;28;20054;-62
2021/12/17 06:12:36;;;;;;;16.13;6.57;;;;;;;;;;6199087;28;20090;-60
2021/12/17 06:15:37;;;;;;;16.27;6.07;;;;;;;;;;6203428;28;20056;-60
2021/12/17 06:18:37;;;;;;;16.92;6.82;;;;;;;;;;6199402;28;20054;-60
2021/12/17 06:21:38;;;;;;;11.43;5.18;;;;;;;;;;6202241;28;20486;-63
2021/12/17 06:24:40;;;;;;;14.30;5.53;;;;;;;;;;6209974;28;20416;-62
2021/12/17 06:27:41;;;;;;;;;;;;;;;;;;6204547;28;20050;-61
2021/12/17 06:30:42;;;;;;;12.98;5.32;;;;;;;;;;6201809;28;20300;-63
2021/12/17 06:33:43;;;;;;;18.85;5.10;;;;;;;;;;6207485;28;20147;-61
2021/12/17 06:36:44;;;;;;;16.10;6.45;;;;;;;;;;6208962;28;20042;-63
2021/12/17 06:39:46;;;;;;;14.20;5.75;;;;;;;;;;6203177;28;20050;-61
2021/12/17 06:42:46;;;;;;;17.95;7.50;;;;;;;;;;6204023;28;20081;-61
2021/12/17 06:45:59;;;;;;;16.20;7.40;;;;;;;;;;6211988;28;20180;-61
2021/12/17 06:59:33;;;;;;;13.35;6.22;;;;;;;;;;6206587;28;20050;-62
2021/12/17 07:06:07;;;;;;;16.17;5.63;;;;;;;;;;6209282;28;20453;-62
2021/12/17 07:22:20;;;;;;;;;;;;;;;;;;6210000;28;20516;-63
2021/12/17 07:41:22;;;;;;;14.98;6.03;;;;;;;;;;6206854;28;20512;-61
2021/12/17 07:44:22;;;;;;;18.35;7.10;;;;;;;;;;6217548;28;20046;-62
2021/12/17 07:47:24;;;;;;;15.98;5.35;;;;;;;;;;6212691;28;20060;-63
2021/12/17 07:50:25;;;;;;;15.82;5.82;;;;;;;;;;6214186;28;20046;-62
2021/12/17 07:53:26;;;;;;;16.00;6.43;;;;;;;;;;6216222;28;20049;-62
2021/12/17 07:56:37;;;;;;;15.75;7.30;;;;;;;;;;6218315;28;20408;-63
2021/12/17 07:59:39;;;;;;;17.60;7.25;;;;;;;;;;6212820;28;20504;-64
2021/12/17 08:02:40;;;;;;;;;;;;;;;;;;6207785;28;20046;-64
2021/12/17 08:05:42;;;;;;;20.48;8.10;;;;;;;;;;6213920;28;19997;-62
2021/12/17 08:08:43;;;;;;;18.55;8.52;;;;;;;;;;6217412;28;20136;-63
2021/12/17 08:11:43;;;;;;;17.00;7.72;;;;;;;;;;6213479;28;20057;-63
2021/12/17 08:14:44;;;;;;;19.02;8.07;;;;;;;;;;6212672;28;20065;-64
2021/12/17 08:28:03;;;;;;;19.55;7.70;;;;;;;;;;6209557;28;20052;-64
2021/12/17 08:31:03;;;;;;;23.50;8.85;;;;;;;;;;6214099;28;20188;-63
2021/12/17 08:34:05;;;;;;;21.65;9.00;;;;;;;;;;6205534;28;20540;-62
2021/12/17 08:37:06;;;;;;;19.70;8.10;;;;;;;;;;6221239;28;20137;-63
2021/12/17 08:40:08;;;;;;;16.20;7.82;;;;;;;;;;6215103;28;20092;-62
2021/12/17 08:43:09;;;;;;;18.23;7.85;;;;;;;;;;6217695;28;20136;-64
2021/12/17 08:46:10;;;;;;;17.50;6.57;;;;;;;;;;6205376;28;20056;-62
2021/12/17 08:49:10;;;;;;;18.20;7.07;;;;;;;;;;6202617;28;20141;-63
2021/12/17 08:52:13;;;;;;;21.95;7.40;;;;;;;;;;6205221;28;20049;-62
2021/12/17 08:55:13;;;;;;;18.88;8.18;;;;;;;;;;6204768;28;20621;-63
2021/12/17 08:58:14;;;;;;;20.33;7.97;;;;;;;;;;6206543;28;20053;-63
2021/12/17 09:01:15;;;;;;;20.85;8.15;;;;;;;;;;6212946;28;20046;-64
2021/12/17 09:04:16;;;;;;;20.80;7.45;;;;;;;;;;6216943;28;20405;-63
2021/12/17 09:07:17;;;;;;;21.25;6.88;;;;;;;;;;6207380;28;20146;-63
2021/12/17 09:10:21;;;;;;;18.13;7.85;;;;;;;;;;6195709;28;20108;-63
2021/12/17 09:13:26;;;;;;;20.30;7.63;;;;;;;;;;6200928;28;20053;-64
2021/12/17 09:16:27;;;;;;;15.60;6.97;;;;;;;;;;6203731;28;20042;-63
2021/12/17 09:19:28;;;;;;;20.13;7.75;;;;;;;;;;6203391;28;20054;-63
2021/12/17 09:22:29;;;;;;;21.05;7.13;;;;;;;;;;6204198;28;20547;-61
2021/12/17 09:25:30;;;;;;;18.67;7.50;;;;;;;;;;6215977;28;20056;-61
2021/12/17 09:28:31;;;;;;;25.58;8.63;;;;;;;;;;6216969;28;20145;-63
2021/12/17 09:31:32;;;;;;;17.40;8.30;;;;;;;;;;6210413;28;20047;-63
2021/12/17 09:34:33;;;;;;;18.10;7.20;;;;;;;;;;6203315;28;20057;-63
2021/12/17 09:37:34;;;;;;;18.25;8.13;;;;;;;;;;6210780;28;20513;-62
2021/12/17 09:40:35;;;;;;;20.52;8.85;;;;;;;;;;6213783;28;20042;-62
2021/12/17 09:43:37;;;;;;;17.95;9.13;;;;;;;;;;6202655;28;20494;-62
2021/12/17 09:46:38;;;;;;;23.40;10.02;;;;;;;;;;6203549;28;20153;-63
2021/12/17 09:49:38;;;;;;;19.48;9.23;;;;;;;;;;6209534;28;20046;-62
2021/12/17 09:52:39;;;;;;;20.30;8.93;;;;;;;;;;6216216;28;20366;-62
2021/12/17 09:55:40;;;;;;;18.13;9.20;;;;;;;;;;6217900;28;20062;-62
2021/12/17 09:58:41;;;;;;;16.58;7.97;;;;;;;;;;6207460;28;20429;-64
2021/12/17 10:01:43;;;;;;;19.77;8.07;;;;;;;;;;6210828;28;20046;-64
2021/12/17 10:04:45;;;;;;;17.40;7.93;;;;;;;;;;6207062;28;20061;-63
2021/12/17 10:07:51;;;;;;;20.63;8.00;;;;;;;;;;6208675;28;20080;-61
2021/12/17 10:11:03;;;;;;;19.67;7.93;;;;;;;;;;6210560;28;20145;-62
2021/12/17 10:14:19;;;;;;;15.10;7.25;;;;;;;;;;6208389;28;20679;-62
2021/12/17 10:17:19;;;;;;;16.60;8.02;;;;;;;;;;6207032;28;20390;-62
2021/12/17 10:20:22;;;;;;;19.13;7.43;;;;;;;;;;6212996;28;20046;-62
2021/12/17 10:23:25;;;;;;;20.63;7.75;;;;;;;;;;6219193;28;20515;-62
2021/12/17 10:26:27;;;;;;;19.70;8.57;;;;;;;;;;6220772;28;20053;-62
2021/12/17 10:29:28;;;;;;;18.38;7.88;;;;;;;;;;6216817;28;20115;-62
2021/12/17 10:32:29;;;;;;;18.02;7.15;;;;;;;;;;6216448;28;20451;-62
2021/12/17 10:35:35;;;;;;;19.92;7.80;;;;;;;;;;6213847;28;20057;-62
2021/12/17 10:38:36;;;;;;;20.92;7.80;;;;;;;;;;6220425;28;20060;-62
2021/12/17 10:41:45;;;;;;;17.75;7.22;;;;;;;;;;6219628;28;20050;-62
2021/12/17 10:45:02;;;;;;;16.85;6.63;;;;;;;;;;6220120;28;20054;-62
2021/12/17 10:48:25;;;;;;;17.00;6.70;;;;;;;;;;6220119;28;20104;-63
2021/12/17 10:51:45;;;;;;;13.45;6.55;;;;;;;;;;6208206;28;20050;-62
2021/12/17 10:54:46;;;;;;;15.68;7.00;;;;;;;;;;6206526;28;20042;-62
2021/12/17 10:57:48;;;;;;;15.27;8.43;;;;;;;;;;6208766;28;20050;-63
2021/12/17 11:01:05;;;;;;;18.98;7.35;;;;;;;;;;6208932;28;20076;-64
2021/12/17 11:04:30;;;;;;;17.42;6.68;;;;;;;;;;6199010;28;20497;-62
2021/12/17 11:07:38;;;;;;;17.38;6.72;;;;;;;;;;6207189;28;20049;-63
2021/12/17 11:10:55;;;;;;;12.90;7.38;;;;;;;;;;6210671;28;20049;-62
2021/12/17 11:13:57;;;;;;;18.25;7.18;;;;;;;;;;6208907;28;20053;-64
2021/12/17 11:16:58;;;;;;;23.88;7.72;;;;;;;;;;6198323;28;20462;-64
2021/12/17 11:20:03;;;;;;;15.48;6.57;;;;;;;;;;6204103;28;20050;-62
2021/12/17 11:23:09;;;;;;;15.60;6.85;;;;;;;;;;6209832;28;20096;-63
2021/12/17 11:26:10;;;;;;;20.55;7.15;;;;;;;;;;6209257;28;20061;-63
2021/12/17 11:29:11;;;;;;;15.68;7.30;;;;;;;;;;6205172;28;20149;-63
2021/12/17 11:32:12;;;;;;;17.58;6.78;;;;;;;;;;6209807;28;20139;-62
2021/12/17 11:35:15;;;;;;;17.63;7.30;;;;;;;;;;6210926;28;20042;-62
2021/12/17 11:38:35;;;;;;;16.42;7.75;;;;;;;;;;6199480;28;20077;-62
2021/12/17 11:41:55;;;;;;;16.95;7.70;;;;;;;;;;6192471;28;20157;-62
2021/12/17 11:48:21;;;;;;;20.73;7.43;;;;;;;;;;6205152;28;20469;-63
2021/12/17 11:51:28;;;;;;;19.23;7.43;;;;;;;;;;6206760;28;20096;-62
2021/12/17 11:54:31;;;;;;;17.95;7.75;;;;;;;;;;6205144;28;20184;-62
2021/12/17 11:57:41;;;;;;;21.25;8.38;;;;;;;;;;6208766;28;20045;-61
2021/12/17 12:00:42;;;;;;;23.30;7.68;;;;;;;;;;6204838;28;20058;-62
2021/12/17 12:03:42;;;;;;;20.30;8.35;;;;;;;;;;6209355;28;20042;-61
2021/12/17 12:06:59;;;;;;;20.77;9.07;;;;;;;;;;6210430;28;20108;-62
2021/12/17 12:10:03;;;;;;;27.95;9.50;;;;;;;;;;6200713;28;20050;-62
2021/12/17 12:13:05;;;;;;;22.88;9.32;;;;;;;;;;6203652;28;20565;-62
2021/12/17 12:16:08;;;;;;;24.58;10.57;;;;;;;;;;6204670;28;20064;-62
2021/12/17 12:19:10;;;;;;;27.25;10.95;;;;;;;;;;6201133;28;20049;-62
2021/12/17 12:22:12;;;;;;;30.73;11.10;;;;;;;;;;6203944;28;20584;-62
2021/12/17 12:25:30;;;;;;;29.45;11.40;;;;;;;;;;6203813;28;20053;-63
2021/12/17 12:31:52;;;;;;;26.48;11.98;;;;;;;;;;6200277;28;20049;-62
2021/12/17 12:35:06;;;;;;;27.42;10.98;;;;;;;;;;6202648;28;20065;-62
2021/12/17 12:38:14;;;;;;;26.52;11.68;;;;;;;;;;6202826;28;20084;-62
2021/12/17 12:41:14;;;;;;;25.95;11.93;;;;;;;;;;6217450;28;20142;-62
2021/12/17 12:44:15;;;;;;;27.63;11.35;;;;;;;;;;6217401;28;20501;-69
2021/12/17 12:47:19;;;;;;;28.00;10.90;;;;;;;;;;6209372;28;20136;-63
2021/12/17 12:50:23;;;;;;;26.73;11.70;;;;;;;;;;6207055;28;20576;-62
2021/12/17 12:53:28;;;;;;;33.20;12.20;;;;;;;;;;6206501;28;20061;-62
2021/12/17 12:56:32;;;;;;;28.33;11.68;;;;;;;;;;6206555;28;20049;-62
2021/12/17 12:59:34;;;;;;;27.15;10.93;;;;;;;;;;6216059;28;20425;-62
2021/12/17 13:02:35;;;;;;;29.13;11.32;;;;;;;;;;6203350;28;20488;-62
2021/12/17 13:05:37;;;;;;;28.80;10.43;;;;;;;;;;6202459;28;20050;-62
2021/12/17 13:08:37;;;;;;;29.27;11.40;;;;;;;;;;6203805;28;20144;-62
2021/12/17 13:11:45;;;;;;;29.00;11.77;;;;;;;;;;6198157;28;20058;-62
2021/12/17 13:14:47;;;;;;;32.30;13.55;;;;;;;;;;6206559;28;20085;-62
2021/12/17 13:24:35;;;;;;;27.23;11.90;;;;;;;;;;6203926;28;20731;-62
2021/12/17 13:27:36;;;;;;;30.00;11.38;;;;;;;;;;6203119;28;21004;-63
2021/12/17 13:30:36;;;;;;;32.95;12.20;;;;;;;;;;6218744;28;20053;-62
2021/12/17 13:33:38;;;;;;;27.50;11.35;;;;;;;;;;6224749;28;20457;-62
2021/12/17 13:36:51;;;;;;;27.40;10.77;;;;;;;;;;6225938;28;20053;-61
2021/12/17 13:39:58;;;;;;;30.92;11.77;;;;;;;;;;6213011;28;20516;-62
2021/12/17 13:43:00;;;;;;;24.10;10.25;;;;;;;;;;6207570;28;20054;-62
2021/12/17 13:46:01;;;;;;;30.58;11.43;;;;;;;;;;6211532;28;20122;-62
2021/12/17 13:49:02;;;;;;;30.27;10.70;;;;;;;;;;6213293;28;20077;-63
2021/12/17 13:52:05;;;;;;;25.65;10.18;;;;;;;;;;6210658;28;20522;-62
2021/12/17 13:55:09;;;;;;;;;;;;;;;;;;6211382;28;20058;-62
2021/12/17 13:58:12;;;;;;;27.73;11.25;;;;;;;;;;6214414;28;19926;-63
2021/12/17 14:01:21;;;;;;;24.20;9.27;;;;;;;;;;6209731;28;20085;-63
2021/12/17 14:04:22;;;;;;;23.05;9.30;;;;;;;;;;6212342;28;20056;-62
2021/12/17 14:07:27;;;;;;;23.80;9.70;;;;;;;;;;6217664;28;20050;-62
2021/12/17 14:10:30;;;;;;;27.15;10.75;;;;;;;;;;6209764;28;20120;-66
2021/12/17 14:13:31;;;;;;;29.45;11.60;;;;;;;;;;6209167;28;20046;-61
2021/12/17 14:16:33;;;;;;;27.05;11.63;;;;;;;;;;6210630;28;20052;-61
2021/12/17 14:19:46;;;;;;;29.20;11.57;;;;;;;;;;6206264;28;20478;-61
2021/12/17 14:22:49;;;;;;;34.78;12.38;;;;;;;;;;6204898;28;21063;-61
2021/12/17 14:25:54;;;;;;;31.35;12.57;;;;;;;;;;6214581;28;20108;-61
2021/12/17 14:28:55;;;;;;;32.40;13.57;;;;;;;;;;6208910;28;20056;-63
2021/12/17 14:31:59;;;;;;;33.00;12.37;;;;;;;;;;6209273;28;20804;-62
2021/12/17 14:35:00;;;;;;;31.25;12.45;;;;;;;;;;6210344;28;20076;-61
2021/12/17 14:38:02;;;;;;;29.50;12.23;;;;;;;;;;6213634;28;20665;-61
2021/12/17 14:41:06;;;;;;;28.27;12.30;;;;;;;;;;6217691;28;20054;-60
2021/12/17 14:47:36;;;;;;;28.50;12.27;;;;;;;;;;6210019;28;20046;-61
2021/12/17 15:03:48;;;;;;;29.33;11.75;;;;;;;;;;6218594;28;20045;-61
2021/12/17 15:06:48;;;;;;;27.42;12.32;;;;;;;;;;6209693;28;20065;-60
2021/12/17 15:09:50;;;;;;;25.17;11.48;;;;;;;;;;6207226;28;20449;-61
2021/12/17 15:12:56;;;;;;;27.88;12.32;;;;;;;;;;6201764;28;20069;-60
2021/12/17 15:15:57;;;;;;;26.05;12.48;;;;;;;;;;6201730;28;20552;-61
2021/12/17 15:18:59;;;;;;;30.55;12.02;;;;;;;;;;6202295;28;20054;-61
2021/12/17 15:22:00;;;;;;;29.87;13.03;;;;;;;;;;6204690;28;20487;-61
2021/12/17 15:25:01;;;;;;;26.40;11.38;;;;;;;;;;6202362;28;20060;-60
2021/12/17 15:28:03;;;;;;;21.98;10.77;;;;;;;;;;6197335;28;20058;-62
2021/12/17 15:31:06;;;;;;;21.90;11.30;;;;;;;;;;6202702;28;20058;-60
2021/12/17 15:34:07;;;;;;;23.52;11.80;;;;;;;;;;6206615;28;20317;-61
2021/12/17 15:37:07;;;;;;;24.20;12.25;;;;;;;;;;6201862;28;20045;-60
2021/12/17 15:40:09;;;;;;;24.23;12.32;;;;;;;;;;6206932;28;20045;-60
2021/12/17 15:43:12;;;;;;;29.83;12.68;;;;;;;;;;6204828;28;20141;-61
2021/12/17 15:46:12;;;;;;;23.77;10.77;;;;;;;;;;6199053;28;20092;-61
2021/12/17 15:49:13;;;;;;;27.00;12.48;;;;;;;;;;6200461;28;20050;-60
2021/12/17 15:52:14;;;;;;;29.08;12.48;;;;;;;;;;6201714;28;20050;-61
2021/12/17 15:55:18;;;;;;;26.85;12.90;;;;;;;;;;6199380;28;20063;-61
2021/12/17 15:58:19;;;;;;;26.20;11.95;;;;;;;;;;6197510;28;20878;-61
2021/12/17 16:01:19;;;;;;;27.52;12.75;;;;;;;;;;6202152;28;20061;-61
2021/12/17 16:04:20;;;;;;;21.08;12.38;;;;;;;;;;6202133;28;20049;-60
2021/12/17 16:07:21;;;;;;;24.40;11.73;;;;;;;;;;6200722;28;20394;-60
2021/12/17 16:23:29;;;;;;;24.40;11.27;;;;;;;;;;6196944;28;20053;-60
2021/12/17 16:26:29;;;;;;;22.70;12.27;;;;;;;;;;6203353;28;20077;-61
2021/12/17 16:29:30;;;;;;;24.38;11.65;;;;;;;;;;6202797;28;20046;-62
2021/12/17 16:32:30;;;;;;;23.52;10.90;;;;;;;;;;6200014;28;20050;-61
2021/12/17 16:35:46;;;;;;;26.77;13.00;;;;;;;;;;6202758;28;20046;-61
2021/12/17 16:38:47;;;;;;;26.55;12.00;;;;;;;;;;6200219;28;20058;-61
2021/12/17 16:41:49;;;;;;;24.70;11.70;;;;;;;;;;6199251;28;20050;-62
2021/12/17 16:47:52;;;;;;;24.90;11.43;;;;;;;;;;6198415;28;20841;-61
2021/12/17 16:50:53;;;;;;;26.55;11.80;;;;;;;;;;6200712;28;20061;-61
2021/12/17 16:53:55;;;;;;;26.88;12.05;;;;;;;;;;6198763;28;20100;-61
2021/12/17 16:56:56;;;;;;;26.92;11.95;;;;;;;;;;6197458;28;20529;-63
2021/12/17 16:59:56;;;;;;;23.83;11.52;;;;;;;;;;6200122;28;20049;-61
2021/12/17 17:02:58;;;;;;;32.72;13.30;;;;;;;;;;6197728;28;20387;-61
2021/12/17 17:06:04;;;;;;;27.63;12.10;;;;;;;;;;6195987;28;20052;-61
2021/12/17 17:09:07;;;;;;;34.30;13.38;;;;;;;;;;6198525;28;20054;-61
2021/12/17 17:12:11;;;;;;;26.75;12.98;;;;;;;;;;6195871;28;20061;-61
2021/12/17 17:15:14;;;;;;;29.65;14.00;;;;;;;;;;6198886;28;20054;-62
2021/12/17 17:18:15;;;;;;;24.77;12.20;;;;;;;;;;6200068;28;20068;-64
2021/12/17 17:21:16;;;;;;;25.67;11.70;;;;;;;;;;6203681;28;20144;-62
2021/12/17 17:24:17;;;;;;;28.30;12.93;;;;;;;;;;6204841;28;20309;-61
2021/12/17 17:27:18;;;;;;;24.58;11.38;;;;;;;;;;6202074;28;20116;-62
2021/12/17 17:30:20;;;;;;;24.80;12.57;;;;;;;;;;6201253;28;20054;-61
2021/12/17 17:33:24;;;;;;;23.17;10.20;;;;;;;;;;6206630;28;21050;-61
2021/12/17 17:36:24;;;;;;;29.00;11.55;;;;;;;;;;6205746;28;20193;-61
2021/12/17 17:39:40;;;;;;;26.10;11.63;;;;;;;;;;6204194;28;20059;-60
2021/12/17 17:42:41;;;;;;;21.13;10.88;;;;;;;;;;6200047;28;20058;-61
2021/12/17 17:45:42;;;;;;;25.42;11.35;;;;;;;;;;6198947;28;20551;-61
2021/12/17 17:48:43;;;;;;;24.65;10.82;;;;;;;;;;6198301;28;20135;-61
2021/12/17 17:51:43;;;;;;;28.30;12.52;;;;;;;;;;6197497;28;20791;-59
2021/12/17 17:54:44;;;;;;;24.35;10.93;;;;;;;;;;6196594;28;20046;-59
2021/12/17 17:57:44;;;;;;;18.70;9.35;;;;;;;;;;6199139;28;20053;-60
2021/12/17 18:00:45;;;;;;;20.95;9.68;;;;;;;;;;6197931;28;20517;-59
2021/12/17 18:03:46;;;;;;;23.35;10.32;;;;;;;;;;6201227;28;20505;-59
2021/12/17 18:06:46;;;;;;;22.60;9.18;;;;;;;;;;6203180;28;20394;-61
2021/12/17 18:09:47;;;;;;;18.10;8.82;;;;;;;;;;6204687;28;21219;-60
2021/12/17 18:12:50;;;;;;;17.90;8.27;;;;;;;;;;6205025;28;20053;-60
2021/12/17 18:15:53;;;;;;;19.35;8.15;;;;;;;;;;6206823;28;20045;-60
2021/12/17 18:18:54;;;;;;;18.23;8.63;;;;;;;;;;6203354;28;20081;-62
2021/12/17 18:21:54;;;;;;;18.60;7.90;;;;;;;;;;6208133;28;20050;-60
2021/12/17 18:24:55;;;;;;;19.70;8.77;;;;;;;;;;6206926;28;20095;-64
2021/12/17 18:27:56;;;;;;;18.20;7.85;;;;;;;;;;6203744;28;20467;-60
2021/12/17 18:30:57;;;;;;;19.00;8.10;;;;;;;;;;6204644;28;20073;-60
2021/12/17 18:33:57;;;;;;;21.50;8.95;;;;;;;;;;6203418;28;20041;-59
2021/12/17 18:36:58;;;;;;;23.13;9.25;;;;;;;;;;6204809;28;20058;-59
2021/12/17 18:39:58;;;;;;;18.98;9.05;;;;;;;;;;6207594;28;20489;-60
2021/12/17 18:46:22;;;;;;;;;;;;;;;;;;6207194;28;21054;-59
2021/12/17 18:49:25;;;;;;;18.15;8.13;;;;;;;;;;6210151;28;19933;-59
2021/12/17 18:52:26;;;;;;;21.95;8.88;;;;;;;;;;6209148;28;20116;-62
2021/12/17 18:55:27;;;;;;;18.60;8.38;;;;;;;;;;6207223;28;20479;-62
2021/12/17 18:58:27;;;;;;;20.05;8.88;;;;;;;;;;6206917;28;20056;-62
2021/12/17 19:01:28;;;;;;;17.00;7.78;;;;;;;;;;6207543;28;20504;-62
2021/12/17 19:04:29;;;;;;;21.90;8.10;;;;;;;;;;6206963;28;20528;-60
2021/12/17 19:07:39;;;;;;;20.73;9.55;;;;;;;;;;6205543;28;20050;-61
2021/12/17 19:10:40;;;;;;;21.35;9.15;;;;;;;;;;6220767;28;20045;-62
2021/12/17 19:13:42;;;;;;;21.02;8.05;;;;;;;;;;6205699;28;20061;-62
2021/12/17 19:16:45;;;;;;;;;;;;;;;;;;6205960;28;20057;-63
2021/12/17 19:19:55;;;;;;;22.92;7.97;;;;;;;;;;6210033;28;19973;-61
2021/12/17 19:23:00;;;;;;;16.65;7.43;;;;;;;;;;6206856;28;20140;-61
2021/12/17 19:26:01;;;;;;;16.63;7.45;;;;;;;;;;6200786;28;20050;-62
2021/12/17 19:29:04;;;;;;;18.10;6.93;;;;;;;;;;6202279;28;20520;-60
2021/12/17 19:32:06;;;;;;;19.30;7.55;;;;;;;;;;6203951;28;20058;-61
2021/12/17 19:35:08;;;;;;;17.65;7.63;;;;;;;;;;6204453;28;20782;-61
2021/12/17 19:38:09;;;;;;;18.42;7.82;;;;;;;;;;6200366;28;20057;-60
2021/12/17 19:41:09;;;;;;;26.83;7.25;;;;;;;;;;6205724;28;20064;-60
2021/12/17 19:44:10;;;;;;;15.93;6.43;;;;;;;;;;6204907;28;20058;-60
2021/12/17 19:50:15;;;;;;;14.63;6.50;;;;;;;;;;6207953;28;20163;-61
2021/12/17 19:53:16;;;;;;;22.30;8.10;;;;;;;;;;6206401;28;20049;-63
2021/12/17 19:56:17;;;;;;;16.60;7.13;;;;;;;;;;6204666;28;20072;-60
2021/12/17 19:59:18;;;;;;;16.23;6.90;;;;;;;;;;6207487;28;20567;-62
2021/12/17 20:02:20;;;;;;;19.02;7.22;;;;;;;;;;6203734;28;20054;-62
2021/12/17 20:05:23;;;;;;;23.38;7.75;;;;;;;;;;6205449;28;21813;-62
2021/12/17 20:08:24;;;;;;;23.33;8.38;;;;;;;;;;6203097;28;20408;-62
2021/12/17 20:11:28;;;;;;;19.00;7.85;;;;;;;;;;6207784;28;20054;-63
2021/12/17 20:14:29;;;;;;;17.08;7.45;;;;;;;;;;6203738;28;20048;-63
2021/12/17 20:17:33;;;;;;;17.33;7.22;;;;;;;;;;6200129;28;20057;-62
2021/12/17 20:20:37;;;;;;;26.13;9.18;;;;;;;;;;6207455;28;20058;-62
2021/12/17 20:23:38;;;;;;;20.13;7.97;;;;;;;;;;6205941;28;20053;-64
2021/12/17 20:26:39;;;;;;;19.50;7.95;;;;;;;;;;6203431;28;21280;-61
2021/12/17 20:29:41;;;;;;;21.83;8.63;;;;;;;;;;6207846;28;20050;-60
2021/12/17 20:32:42;;;;;;;18.42;8.40;;;;;;;;;;6207699;28;20045;-60
2021/12/17 20:35:42;;;;;;;22.58;9.15;;;;;;;;;;6206600;28;20516;-60
2021/12/17 20:38:43;;;;;;;16.02;7.47;;;;;;;;;;6204467;28;20664;-60
2021/12/17 20:41:47;;;;;;;21.80;8.65;;;;;;;;;;6204869;28;20053;-60
2021/12/17 20:44:48;;;;;;;18.98;7.75;;;;;;;;;;6203284;28;20139;-63
2021/12/17 20:47:50;;;;;;;19.38;7.13;;;;;;;;;;6194060;28;20049;-61
2021/12/17 20:50:52;;;;;;;17.67;7.80;;;;;;;;;;6195310;28;20517;-61
2021/12/17 20:53:53;;;;;;;17.42;8.10;;;;;;;;;;6198079;28;20556;-62
2021/12/17 20:56:54;;;;;;;17.58;8.05;;;;;;;;;;6195546;28;20618;-61
2021/12/17 20:59:54;;;;;;;21.67;9.02;;;;;;;;;;6198220;28;20058;-61
2021/12/17 21:02:57;;;;;;;19.73;9.25;;;;;;;;;;6200508;28;20062;-61
2021/12/17 21:05:58;;;;;;;22.98;8.50;;;;;;;;;;6198422;28;20058;-61
2021/12/17 21:09:01;;;;;;;22.40;8.57;;;;;;;;;;6196437;28;20046;-61
2021/12/17 21:12:02;;;;;;;;;;;;;;;;;;6200051;28;20430;-61
2021/12/17 21:15:05;;;;;;;20.38;8.73;;;;;;;;;;6197677;28;19929;-61
2021/12/17 21:18:06;;;;;;;;;;;;;;;;;;6196646;28;20041;-61
2021/12/17 21:21:07;;;;;;;21.15;8.20;;;;;;;;;;6201363;28;19960;-61
2021/12/17 21:24:10;;;;;;;18.50;8.63;;;;;;;;;;6197089;28;20057;-61
2021/12/17 21:27:11;;;;;;;19.30;8.65;;;;;;;;;;6195575;28;20180;-61
2021/12/17 21:30:12;;;;;;;19.83;10.93;;;;;;;;;;6202272;28;20099;-61
2021/12/17 21:33:16;;;;;;;24.08;10.50;;;;;;;;;;6208214;28;20049;-61
2021/12/17 21:36:17;;;;;;;22.65;9.10;;;;;;;;;;6205861;28;20054;-61